| time (UTC) | temp F | wind direction | speed knots | gust knots | rain 1hr in | rain 24hr in | rain mn in | humidity % | barometer mb |
| 20260510193010 | 71 | 359 | 0.0 | 12.2 | 0.00 | 0.87 | 0.87 | 82 | 995.8 |
| 20260510191521 | 68 | 359 | 3.5 | 9.6 | 0.03 | 0.87 | 0.87 | 92 | 995.8 |
| 20260510190012 | 67 | 359 | 0.0 | 7.8 | 0.10 | 0.87 | 0.87 | 95 | 995.9 |
| 20260510184509 | 65 | 359 | 4.3 | 9.6 | 0.42 | 0.87 | 0.87 | 96 | 995.8 |
| 20260510183008 | 63 | 359 | 4.3 | 12.2 | 0.87 | 0.87 | 0.87 | 94 | 995.8 |
| 20260510181506 | 63 | 359 | 0.0 | 9.6 | 0.83 | 0.83 | 0.83 | 94 | 995.5 |
| 20260510180005 | 63 | 359 | 0.0 | 10.4 | 0.76 | 0.76 | 0.76 | 93 | 995.7 |
| 20260510174506 | 64 | 359 | 1.7 | 13.9 | 0.42 | 0.42 | 0.42 | 90 | 996.0 |
| 20260510173101 | 67 | 359 | 6.1 | 12.2 | 0.00 | 0.00 | 0.00 | 82 | 996.2 |
| 20260510171557 | 74 | 359 | 1.7 | 18.2 | 0.00 | 0.00 | 0.00 | 68 | 996.5 |
| 20260510170109 | 80 | 359 | 0.0 | 1.7 | 0.00 | 0.00 | 0.00 | 69 | 994.6 |
| 20260510164604 | 81 | 359 | 0.0 | 7.8 | 0.00 | 0.00 | 0.00 | 66 | 994.2 |
| 20260510163058 | 80 | 359 | 2.6 | 10.4 | 0.00 | 0.00 | 0.00 | 66 | 993.7 |
| 20260510161546 | 79 | 359 | 2.6 | 13.9 | 0.00 | 0.00 | 0.00 | 67 | 993.3 |
| 20260510160057 | 79 | 359 | 2.6 | 11.3 | 0.00 | 0.00 | 0.00 | 66 | 992.7 |
| 20260510154553 | 78 | 359 | 0.0 | 9.6 | 0.00 | 0.00 | 0.00 | 66 | 993.0 |
| 20260510153038 | 76 | 359 | 1.7 | 12.2 | 0.00 | 0.00 | 0.00 | 68 | 992.7 |
| 20260510151536 | 75 | 359 | 4.3 | 12.2 | 0.00 | 0.00 | 0.00 | 70 | 992.5 |
| 20260510150035 | 73 | 359 | 0.9 | 9.6 | 0.00 | 0.00 | 0.00 | 73 | 992.4 |
| 20260510144541 | 72 | 359 | 0.9 | 7.8 | 0.00 | 0.00 | 0.00 | 75 | 993.0 |
| 20260510143039 | 70 | 359 | 6.1 | 12.2 | 0.00 | 0.00 | 0.00 | 78 | 993.0 |
| 20260510141533 | 68 | 359 | 0.0 | 7.8 | 0.00 | 0.00 | 0.00 | 80 | 993.8 |
| 20260510140036 | 68 | 359 | 0.0 | 5.2 | 0.00 | 0.00 | 0.00 | 81 | 994.4 |
| 20260510134532 | 67 | 359 | 0.0 | 1.7 | 0.00 | 0.00 | 0.00 | 83 | 994.5 |
| 20260510133029 | 66 | 359 | 0.0 | 0.9 | 0.00 | 0.00 | 0.00 | 85 | 994.2 |
| 20260510131534 | 66 | 359 | 0.0 | 7.0 | 0.00 | 0.00 | 0.00 | 86 | 993.8 |
| 20260510130027 | 65 | 359 | 0.0 | 5.2 | 0.00 | 0.00 | 0.00 | 87 | 993.7 |
| 20260510124525 | 65 | 4 | 0.0 | 7.0 | 0.00 | 0.00 | 0.00 | 87 | 993.6 |
| 20260510123029 | 65 | 359 | 0.0 | 4.3 | 0.00 | 0.00 | 0.00 | 88 | 993.4 |
| 20260510121523 | 65 | 359 | 0.0 | 1.7 | 0.00 | 0.00 | 0.00 | 90 | 993.4 |
| 20260510120023 | 64 | 359 | 0.0 | 0.9 | 0.00 | 0.00 | 0.00 | 90 | 993.2 |
| 20260510114524 | 65 | 359 | 0.0 | 1.7 | 0.00 | 0.00 | 0.00 | 88 | 993.0 |
| 20260510113021 | 65 | 359 | 0.0 | 2.6 | 0.00 | 0.00 | 0.00 | 88 | 993.0 |
| 20260510111520 | 65 | 359 | 0.0 | 1.7 | 0.00 | 0.00 | 0.00 | 87 | 992.8 |
| 20260510110031 | 65 | 93 | 0.0 | 0.9 | 0.00 | 0.00 | 0.00 | 87 | 992.7 |
| 20260510104519 | 65 | 359 | 0.0 | 5.2 | 0.00 | 0.00 | 0.00 | 88 | 992.5 |
| 20260510103017 | 65 | 10 | 0.0 | 12.2 | 0.00 | 0.00 | 0.00 | 88 | 992.9 |
| 20260510101515 | 66 | 359 | 6.1 | 15.6 | 0.00 | 0.00 | 0.00 | 87 | 992.4 |
| 20260510100015 | 68 | 359 | 11.3 | 21.7 | 0.00 | 0.00 | 0.00 | 83 | 993.3 |
| 20260510094518 | 71 | 297 | 6.1 | 17.4 | 0.00 | 0.00 | 0.00 | 79 | 993.4 |
| 20260510093002 | 73 | 301 | 0.0 | 9.6 | 0.00 | 0.00 | 0.00 | 91 | 992.5 |
| 20260510091601 | 73 | 296 | 0.0 | 7.0 | 0.00 | 0.00 | 0.00 | 91 | 992.0 |
| 20260510090056 | 73 | 285 | 0.0 | 0.9 | 0.00 | 0.00 | 0.00 | 91 | 991.2 |
| 20260510084600 | 72 | 316 | 0.0 | 0.9 | 0.00 | 0.00 | 0.00 | 89 | 991.0 |
| 20260510083053 | 73 | 284 | 0.0 | 2.6 | 0.00 | 0.00 | 0.00 | 88 | 990.7 |
| 20260510081549 | 73 | 25 | 0.0 | 0.9 | 0.00 | 0.00 | 0.00 | 87 | 989.9 |
| 20260510080047 | 73 | 359 | 0.0 | 0.9 | 0.00 | 0.00 | 0.00 | 87 | 989.8 |
| 20260510074546 | 73 | 9 | 0.0 | 0.9 | 0.00 | 0.00 | 0.00 | 86 | 989.6 |
| 20260510073047 | 73 | 31 | 0.0 | 0.0 | 0.00 | 0.00 | 0.00 | 85 | 989.5 |
| 20260510071550 | 74 | 319 | 0.0 | 7.0 | 0.00 | 0.00 | 0.00 | 83 | 989.8 |
| 20260510070042 | 74 | 293 | 0.0 | 0.0 | 0.00 | 0.00 | 0.00 | 82 | 990.2 |
| 20260510064539 | 75 | 359 | 0.0 | 0.9 | 0.00 | 0.00 | 0.00 | 82 | 990.1 |
| 20260510063038 | 74 | 267 | 0.0 | 0.9 | 0.00 | 0.00 | 0.00 | 81 | 989.9 |
| 20260510061534 | 75 | 76 | 0.0 | 6.1 | 0.00 | 0.00 | 0.00 | 81 | 988.9 |
| 20260510060032 | 75 | 45 | 0.0 | 7.8 | 0.00 | 0.00 | 0.00 | 80 | 988.7 |
| 20260510054532 | 75 | 36 | 0.0 | 7.0 | 0.00 | 0.00 | 0.00 | 80 | 988.6 |
| 20260510053049 | 75 | 50 | 0.0 | 1.7 | 0.00 | 0.00 | 0.00 | 80 | 988.7 |
| 20260510051529 | 75 | 43 | 0.0 | 8.7 | 0.00 | 0.00 | 0.00 | 80 | 988.5 |
| 20260510050027 | 75 | 55 | 0.9 | 2.6 | 0.00 | 0.00 | 0.00 | 79 | 988.3 |
| 20260510044526 | 76 | 35 | 0.0 | 1.7 | 0.00 | 0.00 | 0.00 | 77 | 988.1 |
| 20260510043039 | 76 | 359 | 0.0 | 2.6 | 0.00 | 0.00 | 0.00 | 74 | 988.2 |
| 20260510041528 | 77 | 55 | 0.0 | 1.7 | 0.00 | 0.00 | 0.00 | 70 | 988.3 |
| 20260510040035 | 77 | 13 | 0.0 | 1.7 | 0.00 | 0.00 | 0.00 | 69 | 988.3 |
| 20260510034524 | 77 | 34 | 0.0 | 1.7 | 0.00 | 0.00 | 0.00 | 70 | 988.3 |
| 20260510033023 | 77 | 22 | 0.0 | 1.7 | 0.00 | 0.00 | 0.00 | 70 | 988.4 |
| 20260510031525 | 78 | 27 | 0.0 | 0.9 | 0.00 | 0.00 | 0.00 | 69 | 988.3 |
| 20260510030022 | 78 | 18 | 0.0 | 0.9 | 0.00 | 0.00 | 0.00 | 67 | 988.4 |
| 20260510024521 | 79 | 359 | 0.0 | 2.6 | 0.00 | 0.00 | 0.00 | 66 | 988.2 |
| 20260510023021 | 79 | 47 | 0.0 | 0.9 | 0.00 | 0.00 | 0.00 | 65 | 988.1 |
| 20260510021535 | 80 | 22 | 0.0 | 0.9 | 0.00 | 0.00 | 0.00 | 63 | 987.9 |
| 20260510020020 | 80 | 44 | 0.0 | 0.9 | 0.00 | 0.00 | 0.00 | 62 | 987.7 |
| 20260510014523 | 81 | 39 | 0.0 | 0.9 | 0.00 | 0.00 | 0.00 | 62 | 987.7 |
| 20260510013024 | 82 | 39 | 0.0 | 0.9 | 0.00 | 0.00 | 0.00 | 61 | 987.5 |
| 20260510011522 | 82 | 359 | 0.0 | 0.9 | 0.00 | 0.00 | 0.00 | 59 | 987.3 |
| 20260510010019 | 83 | 335 | 0.0 | 0.9 | 0.00 | 0.00 | 0.00 | 55 | 987.1 |
| 20260510004525 | 85 | 29 | 0.0 | 0.9 | 0.00 | 0.00 | 0.00 | 52 | 987.1 |
| 20260510003018 | 86 | 312 | 0.0 | 0.0 | 0.00 | 0.00 | 0.00 | 50 | 987.1 |
| 20260510001517 | 87 | 308 | 0.0 | 0.0 | 0.00 | 0.00 | 0.00 | 49 | 987.1 |
| 20260510000019 | 87 | 315 | 0.0 | 0.9 | 0.00 | 0.00 | 0.00 | 49 | 987.0 |
| 20260509234516 | 88 | 328 | 0.0 | 0.9 | 0.00 | 0.00 | 0.00 | 48 | 987.0 |
| 20260509233015 | 88 | 274 | 0.0 | 0.9 | 0.00 | 0.00 | 0.00 | 49 | 987.0 |
| 20260509231515 | 88 | 359 | 0.0 | 4.3 | 0.00 | 0.00 | 0.00 | 50 | 987.0 |
| 20260509230015 | 89 | 289 | 0.0 | 1.7 | 0.00 | 0.00 | 0.00 | 50 | 987.0 |
| 20260509224514 | 89 | 328 | 0.0 | 0.9 | 0.00 | 0.00 | 0.00 | 50 | 986.9 |
| 20260509223014 | 90 | 328 | 0.0 | 7.0 | 0.00 | 0.00 | 0.00 | 46 | 986.9 |
| 20260509221515 | 91 | 359 | 0.0 | 0.9 | 0.00 | 0.00 | 0.00 | 47 | 986.9 |
| 20260509220019 | 90 | 337 | 0.0 | 1.7 | 0.00 | 0.00 | 0.00 | 43 | 986.9 |
| 20260509214511 | 90 | 310 | 0.0 | 0.9 | 0.00 | 0.00 | 0.00 | 46 | 987.0 |
| 20260509213023 | 90 | 339 | 0.0 | 0.9 | 0.00 | 0.00 | 0.00 | 46 | 987.2 |
| 20260509211509 | 90 | 305 | 0.0 | 7.0 | 0.00 | 0.00 | 0.00 | 41 | 987.4 |
| 20260509210006 | 89 | 313 | 0.0 | 7.8 | 0.00 | 0.00 | 0.00 | 49 | 987.5 |
| 20260509204505 | 89 | 308 | 6.1 | 9.6 | 0.00 | 0.00 | 0.00 | 51 | 987.8 |
| 20260509203001 | 88 | 336 | 1.7 | 8.7 | 0.00 | 0.00 | 0.00 | 57 | 988.1 |
| 20260509201602 | 88 | 311 | 0.0 | 0.9 | 0.00 | 0.00 | 0.00 | 58 | 988.1 |
| 20260509200100 | 87 | 286 | 0.0 | 7.0 | 0.00 | 0.00 | 0.00 | 60 | 988.3 |
| 20260509194557 | 86 | 359 | 5.2 | 9.6 | 0.00 | 0.00 | 0.00 | 63 | 988.4 |